createdAt,value
2023-05-14T00:01:28.167Z,4.43
2023-05-14T00:03:54.864Z,4.57
2023-05-14T00:06:21.559Z,4.70
2023-05-14T00:08:47.983Z,4.63
2023-05-14T00:11:14.634Z,4.57
2023-05-14T00:13:41.118Z,4.90
2023-05-14T00:16:07.708Z,4.15
2023-05-14T00:18:34.263Z,4.60
2023-05-14T00:21:00.780Z,4.45
2023-05-14T00:23:27.204Z,4.70
2023-05-14T00:25:53.640Z,4.70
2023-05-14T00:28:20.304Z,4.60
2023-05-14T00:30:46.795Z,4.53
2023-05-14T00:33:13.420Z,4.75
2023-05-14T00:35:39.847Z,4.97
2023-05-14T00:38:06.319Z,4.38
2023-05-14T00:40:33.005Z,4.72
2023-05-14T00:42:59.610Z,4.95
2023-05-14T00:45:26.279Z,4.68
2023-05-14T00:47:54.028Z,5.25
2023-05-14T00:50:21.274Z,4.85
2023-05-14T00:52:48.028Z,5.00
2023-05-14T00:55:16.642Z,4.90
2023-05-14T00:57:43.840Z,4.55
2023-05-14T01:00:10.905Z,4.65
2023-05-14T01:02:37.520Z,4.95
2023-05-14T01:05:04.513Z,5.00
2023-05-14T01:07:42.882Z,5.00
2023-05-14T01:10:32.175Z,4.90
2023-05-14T01:13:21.879Z,4.57
2023-05-14T01:15:49.259Z,5.03
2023-05-14T01:18:19.173Z,4.93
2023-05-14T01:20:46.022Z,4.97
2023-05-14T01:23:12.437Z,4.95
2023-05-14T01:25:38.892Z,4.78
2023-05-14T01:28:14.788Z,5.15
2023-05-14T01:30:48.928Z,4.90
2023-05-14T01:33:21.884Z,4.30
2023-05-14T01:35:49.680Z,5.13
2023-05-14T01:38:18.729Z,4.63
2023-05-14T01:40:46.767Z,5.07
2023-05-14T01:43:15.145Z,4.72
2023-05-14T01:45:42.289Z,4.78
2023-05-14T01:48:08.789Z,4.90
2023-05-14T01:50:35.289Z,4.57
2023-05-14T01:53:01.799Z,4.70
2023-05-14T01:55:28.232Z,4.90
2023-05-14T01:57:54.939Z,4.63
2023-05-14T02:00:27.861Z,5.20
2023-05-14T02:02:54.362Z,4.50
2023-05-14T02:05:21.158Z,4.65
2023-05-14T02:07:47.948Z,4.80
2023-05-14T02:10:14.510Z,4.57
2023-05-14T02:12:41.002Z,5.07
2023-05-14T02:15:09.009Z,4.55
2023-05-14T02:17:35.510Z,5.05
2023-05-14T02:20:02.010Z,4.65
2023-05-14T02:22:28.466Z,4.85
2023-05-14T02:24:54.879Z,4.80
2023-05-14T02:27:21.419Z,4.78
2023-05-14T02:29:47.934Z,4.82
2023-05-14T02:32:14.468Z,4.68
2023-05-14T02:34:40.940Z,4.68
2023-05-14T02:37:07.418Z,5.00
2023-05-14T02:39:33.944Z,4.78
2023-05-14T02:42:00.381Z,4.95
2023-05-14T02:44:26.797Z,4.80
2023-05-14T02:46:53.370Z,5.00
2023-05-14T02:49:19.937Z,4.75
2023-05-14T02:51:46.374Z,4.75
2023-05-14T02:54:12.762Z,4.85
2023-05-14T02:56:39.224Z,4.80
2023-05-14T02:59:05.656Z,4.65
2023-05-14T03:01:32.525Z,4.78
2023-05-14T03:03:59.439Z,4.93
2023-05-14T03:06:25.901Z,4.75
2023-05-14T03:08:52.303Z,4.72
2023-05-14T03:11:18.757Z,4.50
2023-05-14T03:13:45.327Z,4.80
2023-05-14T03:16:11.866Z,4.93
2023-05-14T03:18:38.299Z,4.70
2023-05-14T03:21:04.795Z,5.15
2023-05-14T03:23:35.053Z,4.75
2023-05-14T03:26:02.159Z,5.00
2023-05-14T03:28:28.561Z,5.05
2023-05-14T03:30:55.060Z,4.68
2023-05-14T03:33:21.881Z,5.10
2023-05-14T03:35:48.388Z,4.97
2023-05-14T03:38:14.798Z,4.97
2023-05-14T03:40:41.275Z,4.60
2023-05-14T03:43:07.669Z,4.85
2023-05-14T03:45:34.108Z,5.20
2023-05-14T03:48:00.684Z,4.65
2023-05-14T03:50:27.282Z,4.97
2023-05-14T03:52:54.932Z,5.20
2023-05-14T03:55:21.600Z,4.95
2023-05-14T03:57:48.710Z,4.95
2023-05-14T04:00:16.035Z,5.10
2023-05-14T04:02:42.733Z,4.93
2023-05-14T04:05:09.629Z,5.07
2023-05-14T04:07:36.056Z,4.97
2023-05-14T04:10:05.727Z,4.85
2023-05-14T04:12:32.152Z,4.97
2023-05-14T04:14:58.600Z,5.20
2023-05-14T04:17:25.701Z,4.60
2023-05-14T04:19:52.271Z,4.88
2023-05-14T04:22:18.698Z,5.07
2023-05-14T04:24:45.114Z,4.70
2023-05-14T04:27:11.517Z,4.80
2023-05-14T04:29:37.913Z,4.97
2023-05-14T04:32:04.854Z,4.82
2023-05-14T04:34:31.380Z,4.97
2023-05-14T04:36:57.812Z,4.65
2023-05-14T04:39:24.685Z,5.05
2023-05-14T04:41:51.182Z,5.00
2023-05-14T04:44:17.857Z,4.55
2023-05-14T04:46:44.260Z,4.80
2023-05-14T04:49:10.704Z,4.60
2023-05-14T04:51:37.120Z,4.90
2023-05-14T04:54:03.706Z,4.88
2023-05-14T04:56:30.111Z,4.70
2023-05-14T04:58:56.559Z,4.80
2023-05-14T05:01:23.651Z,4.50
2023-05-14T05:03:50.958Z,4.63
2023-05-14T05:06:17.724Z,4.47
2023-05-14T05:08:44.141Z,4.40
2023-05-14T05:11:10.622Z,4.65
2023-05-14T05:13:37.062Z,4.45
2023-05-14T05:16:03.647Z,4.40
2023-05-14T05:18:30.294Z,4.60
2023-05-14T05:20:56.726Z,4.35
2023-05-14T05:23:23.378Z,4.85
2023-05-14T05:25:50.506Z,4.60
2023-05-14T05:28:16.958Z,4.95
2023-05-14T05:30:45.184Z,4.32
2023-05-14T05:33:12.520Z,4.78
2023-05-14T05:35:39.095Z,4.55
2023-05-14T05:38:05.569Z,4.45
2023-05-14T05:40:32.052Z,4.43
2023-05-14T05:42:58.461Z,4.20
2023-05-14T05:45:24.867Z,4.28
2023-05-14T05:47:51.360Z,4.20
2023-05-14T05:50:18.952Z,4.30
2023-05-14T05:52:46.536Z,4.28
2023-05-14T05:55:12.963Z,4.53
2023-05-14T05:57:39.423Z,4.15
2023-05-14T06:00:13.237Z,4.57
2023-05-14T06:02:40.805Z,4.60
2023-05-14T06:05:08.547Z,4.05
2023-05-14T06:07:35.325Z,4.30
2023-05-14T06:10:02.044Z,4.40
2023-05-14T06:12:28.507Z,4.22
2023-05-14T06:14:57.706Z,4.03
2023-05-14T06:17:25.228Z,4.20
2023-05-14T06:19:52.304Z,4.00
2023-05-14T06:22:18.960Z,4.30
2023-05-14T06:24:45.644Z,5.07
2023-05-14T06:27:12.043Z,5.85
2023-05-14T06:29:38.625Z,5.00
2023-05-14T06:32:05.573Z,5.25
2023-05-14T06:34:32.157Z,5.38
2023-05-14T06:36:58.646Z,4.90
2023-05-14T06:39:25.102Z,4.97
2023-05-14T06:41:51.671Z,4.28
2023-05-14T06:44:19.515Z,5.00
2023-05-14T06:46:46.001Z,4.72
2023-05-14T06:49:12.471Z,4.75
2023-05-14T06:51:39.136Z,4.60
2023-05-14T06:54:05.619Z,4.80
2023-05-14T06:56:32.052Z,4.47
2023-05-14T06:58:58.462Z,4.55
2023-05-14T07:01:24.938Z,4.57
2023-05-14T07:03:51.441Z,4.20
2023-05-14T07:06:17.912Z,4.65
2023-05-14T07:08:47.338Z,4.88
2023-05-14T07:11:14.124Z,4.55
2023-05-14T07:13:41.197Z,4.25
2023-05-14T07:16:11.265Z,4.70
2023-05-14T07:18:37.802Z,4.03
2023-05-14T07:21:07.234Z,4.53
2023-05-14T07:23:36.537Z,5.00
2023-05-14T07:26:03.551Z,4.68
2023-05-14T07:28:30.002Z,4.60
2023-05-14T07:30:56.575Z,4.95
2023-05-14T07:33:23.560Z,4.60
2023-05-14T07:35:50.530Z,4.32
2023-05-14T07:38:20.020Z,4.10
2023-05-14T07:40:46.707Z,4.53
2023-05-14T07:43:14.480Z,4.65
2023-05-14T07:45:41.223Z,4.90
2023-05-14T07:48:07.882Z,4.72
2023-05-14T07:50:34.510Z,4.78
2023-05-14T07:53:00.896Z,4.50
2023-05-14T07:55:27.292Z,4.45
2023-05-14T07:57:53.725Z,4.18
2023-05-14T08:00:20.299Z,4.05
2023-05-14T08:02:46.892Z,3.97
2023-05-14T08:05:13.505Z,4.22
2023-05-14T08:07:39.965Z,4.25
2023-05-14T08:10:07.806Z,4.20
2023-05-14T08:12:34.318Z,4.00
2023-05-14T08:15:00.786Z,4.10
2023-05-14T08:17:27.295Z,4.18
2023-05-14T08:19:54.124Z,3.97
2023-05-14T08:22:20.639Z,3.60
2023-05-14T08:24:47.176Z,4.03
2023-05-14T08:27:13.646Z,4.18
2023-05-14T08:29:40.059Z,3.83
2023-05-14T08:32:19.359Z,4.38
2023-05-14T08:34:50.110Z,3.78
2023-05-14T08:37:16.527Z,4.00
2023-05-14T08:39:42.946Z,3.60
2023-05-14T08:42:12.688Z,3.63
2023-05-14T08:44:47.733Z,3.90
2023-05-14T08:47:16.068Z,3.70
2023-05-14T08:49:44.938Z,3.85
2023-05-14T08:52:12.356Z,4.40
2023-05-14T08:54:40.394Z,3.92
2023-05-14T08:57:09.929Z,4.20
2023-05-14T08:59:36.587Z,4.10
2023-05-14T09:02:06.363Z,4.05
2023-05-14T09:04:33.760Z,4.38
2023-05-14T09:07:02.130Z,4.28
2023-05-14T09:09:28.670Z,4.20
2023-05-14T09:11:55.179Z,5.10
2023-05-14T09:14:22.459Z,4.80
2023-05-14T09:16:50.614Z,4.53
2023-05-14T09:19:19.227Z,4.30
2023-05-14T09:21:50.077Z,4.40
2023-05-14T09:24:26.849Z,4.13
2023-05-14T09:26:54.690Z,4.60
2023-05-14T09:29:21.390Z,4.00
2023-05-14T09:31:50.473Z,3.95
2023-05-14T09:34:28.374Z,4.65
2023-05-14T09:36:58.624Z,4.20
2023-05-14T09:39:25.769Z,4.03
2023-05-14T09:41:52.345Z,5.20
2023-05-14T09:44:19.746Z,5.00
2023-05-14T09:46:46.948Z,4.57
2023-05-14T09:49:13.539Z,4.65
2023-05-14T09:51:40.095Z,4.50
2023-05-14T09:54:07.342Z,4.32
2023-05-14T09:56:34.991Z,4.90
2023-05-14T09:59:01.548Z,5.30
2023-05-14T10:01:29.286Z,5.60
2023-05-14T10:03:56.508Z,4.82
2023-05-14T10:06:29.459Z,5.18
2023-05-14T10:08:59.898Z,5.55
2023-05-14T10:11:30.465Z,4.93
2023-05-14T10:14:04.550Z,5.35
2023-05-14T10:16:37.921Z,4.65
2023-05-14T10:19:11.823Z,4.88
2023-05-14T10:21:41.212Z,4.85
2023-05-14T10:24:09.833Z,4.50
2023-05-14T10:26:39.268Z,4.38
2023-05-14T10:29:06.520Z,4.18
2023-05-14T10:31:56.525Z,4.20
2023-05-14T10:34:40.765Z,4.07
2023-05-14T10:37:11.574Z,4.57
2023-05-14T10:39:56.776Z,7.55
2023-05-14T10:42:25.812Z,5.63
2023-05-14T10:44:58.888Z,5.50
2023-05-14T10:47:29.424Z,6.22
2023-05-14T10:49:57.728Z,6.10
2023-05-14T10:52:26.358Z,5.22
2023-05-14T10:55:03.131Z,5.07
2023-05-14T10:57:31.600Z,5.10
2023-05-14T11:00:00.241Z,5.70
2023-05-14T11:02:27.683Z,5.22
2023-05-14T11:04:58.132Z,4.68
2023-05-14T11:07:29.100Z,5.68
2023-05-14T11:10:01.260Z,4.85
2023-05-14T11:12:28.811Z,4.63
2023-05-14T11:14:59.354Z,4.63
2023-05-14T11:17:27.103Z,4.20
2023-05-14T11:19:54.023Z,4.70
2023-05-14T11:22:20.910Z,4.72
2023-05-14T11:24:47.683Z,4.00
2023-05-14T11:27:14.211Z,4.30
2023-05-14T11:29:46.792Z,4.00
2023-05-14T11:32:14.299Z,4.10
2023-05-14T11:34:42.061Z,4.07
2023-05-14T11:37:10.098Z,4.15
2023-05-14T11:39:39.616Z,3.83
2023-05-14T11:42:12.288Z,4.00
2023-05-14T11:44:39.333Z,3.95
2023-05-14T11:47:06.512Z,3.80
2023-05-14T11:49:35.473Z,3.47
2023-05-14T11:52:03.821Z,3.65
2023-05-14T11:54:31.599Z,3.70
2023-05-14T11:56:59.419Z,3.67
2023-05-14T11:59:27.556Z,3.80
2023-05-14T12:01:55.060Z,3.53
2023-05-14T12:04:22.911Z,3.30
2023-05-14T12:06:51.527Z,3.55
2023-05-14T12:09:19.307Z,3.50
2023-05-14T12:11:51.054Z,3.53
2023-05-14T12:14:20.738Z,3.63
2023-05-14T12:16:48.735Z,3.50
2023-05-14T12:19:17.881Z,3.60
2023-05-14T12:21:45.596Z,3.60
2023-05-14T12:24:13.351Z,3.72
2023-05-14T12:26:43.984Z,3.58
2023-05-14T12:29:13.437Z,3.63
2023-05-14T12:31:46.645Z,3.30
2023-05-14T12:34:13.265Z,3.45
2023-05-14T12:36:39.761Z,3.47
2023-05-14T12:39:06.182Z,3.45
2023-05-14T12:41:33.496Z,3.63
2023-05-14T12:44:00.798Z,3.40
2023-05-14T12:46:27.897Z,3.05
2023-05-14T12:48:54.810Z,3.28
2023-05-14T12:51:21.304Z,3.25
2023-05-14T12:53:48.164Z,3.47
2023-05-14T12:56:14.966Z,3.17
2023-05-14T12:58:41.509Z,3.20
2023-05-14T13:01:08.540Z,3.22
2023-05-14T13:03:35.052Z,3.25
2023-05-14T13:06:01.623Z,3.63
2023-05-14T13:08:28.314Z,3.30
2023-05-14T13:10:55.853Z,3.20
2023-05-14T13:13:23.503Z,3.03
2023-05-14T13:15:50.075Z,3.22
2023-05-14T13:18:20.404Z,3.20
2023-05-14T13:20:49.480Z,3.17
2023-05-14T13:23:15.909Z,3.13
2023-05-14T13:25:42.340Z,3.20
2023-05-14T13:28:09.292Z,3.58
2023-05-14T13:30:35.983Z,2.97
2023-05-14T13:33:02.532Z,3.45
2023-05-14T13:35:29.025Z,3.42
2023-05-14T13:37:55.453Z,3.47
2023-05-14T13:40:22.020Z,3.50
2023-05-14T13:42:48.496Z,3.38
2023-05-14T13:45:14.984Z,3.00
2023-05-14T13:47:41.517Z,3.10
2023-05-14T13:50:08.324Z,3.88
2023-05-14T13:52:34.789Z,3.15
2023-05-14T13:55:01.624Z,3.95
2023-05-14T13:57:28.048Z,3.60
2023-05-14T13:59:54.516Z,3.28
2023-05-14T14:02:21.083Z,3.20
2023-05-14T14:04:49.353Z,3.42
2023-05-14T14:07:15.842Z,3.20
2023-05-14T14:09:42.269Z,3.75
2023-05-14T14:12:09.258Z,3.70
2023-05-14T14:14:35.695Z,3.13
2023-05-14T14:17:02.162Z,3.20
2023-05-14T14:19:28.592Z,3.42
2023-05-14T14:21:55.065Z,3.38
2023-05-14T14:24:21.460Z,3.75
2023-05-14T14:26:47.936Z,3.03
2023-05-14T14:29:14.446Z,3.13
2023-05-14T14:31:41.022Z,3.25
2023-05-14T14:34:07.541Z,3.45
2023-05-14T14:36:34.029Z,3.22
2023-05-14T14:39:00.441Z,3.20
2023-05-14T14:41:27.408Z,3.15
2023-05-14T14:43:53.928Z,3.08
2023-05-14T14:46:20.388Z,2.92
2023-05-14T14:48:46.914Z,3.00
2023-05-14T14:51:13.449Z,3.17
2023-05-14T14:53:40.469Z,3.60
2023-05-14T14:56:07.102Z,3.15
2023-05-14T14:58:33.676Z,3.28
2023-05-14T15:01:01.170Z,3.30
2023-05-14T15:03:28.068Z,3.17
2023-05-14T15:05:54.612Z,2.90
2023-05-14T15:08:25.643Z,3.00
2023-05-14T15:10:52.240Z,2.90
2023-05-14T15:13:19.118Z,3.05
2023-05-14T15:15:45.708Z,3.10
2023-05-14T15:18:12.210Z,2.88
2023-05-14T15:20:38.906Z,3.30
2023-05-14T15:23:06.085Z,2.67
2023-05-14T15:25:32.668Z,2.90
2023-05-14T15:27:59.126Z,2.83
2023-05-14T15:30:25.594Z,2.78
2023-05-14T15:32:52.379Z,2.63
2023-05-14T15:35:19.060Z,3.20
2023-05-14T15:37:45.569Z,2.88
2023-05-14T15:40:12.488Z,2.90
2023-05-14T15:42:43.650Z,2.95
2023-05-14T15:45:12.342Z,3.08
2023-05-14T15:47:38.861Z,4.38
2023-05-14T15:50:05.914Z,4.15
2023-05-14T15:52:32.486Z,3.75
2023-05-14T15:54:59.598Z,5.72
2023-05-14T15:57:26.253Z,7.53
2023-05-14T15:59:52.685Z,5.80
2023-05-14T16:02:19.170Z,5.18
2023-05-14T16:04:45.680Z,5.82
2023-05-14T16:07:13.164Z,6.30
2023-05-14T16:09:39.595Z,5.82
2023-05-14T16:12:06.847Z,4.97
2023-05-14T16:14:34.678Z,5.18
2023-05-14T16:17:02.068Z,4.45
2023-05-14T16:19:28.674Z,4.90
2023-05-14T16:21:55.097Z,4.32
2023-05-14T16:24:21.638Z,4.30
2023-05-14T16:26:48.206Z,4.55
2023-05-14T16:29:14.664Z,4.55
2023-05-14T16:31:41.230Z,4.82
2023-05-14T16:34:07.687Z,4.60
2023-05-14T16:36:34.253Z,4.22
2023-05-14T16:41:30.064Z,4.40
2023-05-14T16:43:56.552Z,4.28
2023-05-14T16:46:23.131Z,4.75
2023-05-14T16:48:50.701Z,4.40
2023-05-14T16:51:17.270Z,4.00
2023-05-14T16:53:43.679Z,3.78
2023-05-14T16:56:11.034Z,4.25
2023-05-14T16:58:37.508Z,4.07
2023-05-14T17:01:04.147Z,4.03
2023-05-14T17:03:30.640Z,4.43
2023-05-14T17:05:57.172Z,4.05
2023-05-14T17:08:23.681Z,3.95
2023-05-14T17:10:50.182Z,4.35
2023-05-14T17:13:16.821Z,4.50
2023-05-14T17:15:44.033Z,4.15
2023-05-14T17:18:12.041Z,4.45
2023-05-14T17:20:38.634Z,4.20
2023-05-14T17:23:05.024Z,4.32
2023-05-14T17:25:33.163Z,4.18
2023-05-14T17:28:00.092Z,4.00
2023-05-14T17:30:26.635Z,4.05
2023-05-14T17:32:53.146Z,4.28
2023-05-14T17:35:19.711Z,4.00
2023-05-14T17:37:46.345Z,4.05
2023-05-14T17:40:13.268Z,4.50
2023-05-14T17:42:39.692Z,3.95
2023-05-14T17:45:06.879Z,4.50
2023-05-14T17:47:33.394Z,4.32
2023-05-14T17:49:59.961Z,4.00
2023-05-14T17:52:26.387Z,4.30
2023-05-14T17:54:52.794Z,4.18
2023-05-14T17:57:19.251Z,4.22
2023-05-14T17:59:45.717Z,4.53
2023-05-14T18:02:12.125Z,4.43
2023-05-14T18:04:38.539Z,4.28
2023-05-14T18:07:05.483Z,3.97
2023-05-14T18:09:32.122Z,4.05
2023-05-14T18:11:58.546Z,3.85
2023-05-14T18:14:25.038Z,4.35
2023-05-14T18:16:51.556Z,4.43
2023-05-14T18:19:18.447Z,4.05
2023-05-14T18:21:48.070Z,4.43
2023-05-14T18:24:14.642Z,4.53
2023-05-14T18:26:41.080Z,4.18
2023-05-14T18:29:07.516Z,4.32
2023-05-14T18:31:34.017Z,4.13
2023-05-14T18:34:00.539Z,4.13
2023-05-14T18:36:27.005Z,4.00
2023-05-14T18:38:53.386Z,3.90
2023-05-14T18:41:19.808Z,4.60
2023-05-14T18:43:46.300Z,4.65
2023-05-14T18:46:12.793Z,4.60
2023-05-14T18:48:39.320Z,4.60
2023-05-14T18:51:05.787Z,4.03
2023-05-14T18:53:32.289Z,4.40
2023-05-14T18:56:00.077Z,4.32
2023-05-14T18:58:26.494Z,4.60
2023-05-14T19:00:52.897Z,4.47
2023-05-14T19:03:20.298Z,4.43
2023-05-14T19:05:47.194Z,4.50
2023-05-14T19:08:13.731Z,4.10
2023-05-14T19:10:40.183Z,4.07
2023-05-14T19:13:06.618Z,4.50
2023-05-14T19:15:33.147Z,4.50
2023-05-14T19:18:00.331Z,4.32
2023-05-14T19:20:27.260Z,4.10
2023-05-14T19:22:53.686Z,4.43
2023-05-14T19:25:20.105Z,4.13
2023-05-14T19:27:50.878Z,3.90
2023-05-14T19:30:17.865Z,4.20
2023-05-14T19:32:44.341Z,3.85
2023-05-14T19:35:11.517Z,3.83
2023-05-14T19:37:38.148Z,4.50
2023-05-14T19:40:06.179Z,4.15
2023-05-14T19:42:32.623Z,3.92
2023-05-14T19:44:59.037Z,4.10
2023-05-14T19:47:25.582Z,4.30
2023-05-14T19:49:52.049Z,3.92
2023-05-14T19:52:18.455Z,4.20
2023-05-14T19:54:44.935Z,3.97
2023-05-14T19:57:11.328Z,4.55
2023-05-14T19:59:39.119Z,3.92
2023-05-14T20:02:05.757Z,4.00
2023-05-14T20:04:33.226Z,4.63
2023-05-14T20:06:59.648Z,4.00
2023-05-14T20:09:26.131Z,3.90
2023-05-14T20:11:52.570Z,4.00
2023-05-14T20:14:18.964Z,3.70
2023-05-14T20:16:46.980Z,3.85
2023-05-14T20:19:14.257Z,3.85
2023-05-14T20:21:40.768Z,4.00
2023-05-14T20:24:07.234Z,4.32
2023-05-14T20:26:33.955Z,4.30
2023-05-14T20:29:00.619Z,4.40
2023-05-14T20:31:27.112Z,4.43
2023-05-14T20:33:53.651Z,3.92
2023-05-14T20:36:20.198Z,4.05
2023-05-14T20:38:47.721Z,4.38
2023-05-14T20:41:15.063Z,4.18
2023-05-14T20:43:41.479Z,4.10
2023-05-14T20:46:08.993Z,4.10
2023-05-14T20:48:35.431Z,4.40
2023-05-14T20:51:04.905Z,4.00
2023-05-14T20:53:31.575Z,3.85
2023-05-14T20:55:59.004Z,3.60
2023-05-14T20:58:25.609Z,3.83
2023-05-14T21:00:52.125Z,4.20
2023-05-14T21:03:18.730Z,3.80
2023-05-14T21:05:45.671Z,3.83
2023-05-14T21:08:12.113Z,3.55
2023-05-14T21:10:38.542Z,3.88
2023-05-14T21:13:05.013Z,3.60
2023-05-14T21:15:31.499Z,3.67
2023-05-14T21:17:58.127Z,3.88
2023-05-14T21:20:24.694Z,3.60
2023-05-14T21:22:51.150Z,3.78
2023-05-14T21:25:20.471Z,3.63
2023-05-14T21:27:46.904Z,3.72
2023-05-14T21:30:13.760Z,3.63
2023-05-14T21:32:40.338Z,3.20
2023-05-14T21:35:07.174Z,3.80
2023-05-14T21:37:33.652Z,3.30
2023-05-14T21:40:00.284Z,3.42
2023-05-14T21:42:26.699Z,3.70
2023-05-14T21:44:53.068Z,3.28
2023-05-14T21:47:21.047Z,3.30
2023-05-14T21:49:47.686Z,3.22
2023-05-14T21:52:14.192Z,3.45
2023-05-14T21:54:40.589Z,2.88
2023-05-14T21:57:07.035Z,3.33
2023-05-14T21:59:33.951Z,3.22
2023-05-14T22:04:29.703Z,3.38
2023-05-14T22:06:56.374Z,3.28
2023-05-14T22:09:22.828Z,3.28
2023-05-14T22:11:49.290Z,3.13
2023-05-14T22:14:15.701Z,3.30
2023-05-14T22:16:42.161Z,3.00
2023-05-14T22:19:08.770Z,2.97
2023-05-14T22:21:35.359Z,3.20
2023-05-14T22:24:01.887Z,3.35
2023-05-14T22:26:28.308Z,3.15
2023-05-14T22:28:56.859Z,2.83
2023-05-14T22:31:23.604Z,3.15
2023-05-14T22:33:50.044Z,2.92
2023-05-14T22:36:16.690Z,3.08
2023-05-14T22:38:43.845Z,2.92
2023-05-14T22:41:10.894Z,3.40
2023-05-14T22:43:37.329Z,3.10
2023-05-14T22:46:04.042Z,2.90
2023-05-14T22:48:30.519Z,3.53
2023-05-14T22:50:56.964Z,3.25
2023-05-14T22:53:25.167Z,3.13
2023-05-14T22:55:51.813Z,3.42
2023-05-14T22:58:18.270Z,3.28
2023-05-14T23:00:44.740Z,3.00
2023-05-14T23:03:11.133Z,2.90
2023-05-14T23:05:37.650Z,3.28
2023-05-14T23:08:04.275Z,3.22
2023-05-14T23:10:30.721Z,2.88
2023-05-14T23:12:57.180Z,3.05
2023-05-14T23:15:23.907Z,3.50
2023-05-14T23:17:50.645Z,3.30
2023-05-14T23:20:17.653Z,3.00
2023-05-14T23:22:44.093Z,3.35
2023-05-14T23:25:10.576Z,3.30
2023-05-14T23:27:37.045Z,3.10
2023-05-14T23:30:04.252Z,3.22
2023-05-14T23:32:30.784Z,3.50
2023-05-14T23:34:57.270Z,3.40
2023-05-14T23:37:24.015Z,3.38
2023-05-14T23:39:50.788Z,3.35
2023-05-14T23:42:20.163Z,3.50
2023-05-14T23:44:46.609Z,3.42
2023-05-14T23:47:13.101Z,3.58
2023-05-14T23:49:40.806Z,3.28
2023-05-14T23:52:07.307Z,3.33
2023-05-14T23:54:33.801Z,3.50
2023-05-14T23:57:00.403Z,3.50
2023-05-14T23:59:26.904Z,3.90
